createdAt,value
2018-06-02T00:00:27.299Z,986.48
2018-06-02T00:01:27.730Z,986.48
2018-06-02T00:02:27.646Z,986.49
2018-06-02T00:03:27.221Z,986.50
2018-06-02T00:04:27.235Z,986.49
2018-06-02T00:05:27.282Z,986.51
2018-06-02T00:06:27.182Z,986.50
2018-06-02T00:07:27.320Z,986.53
2018-06-02T00:08:27.225Z,986.55
2018-06-02T00:09:27.171Z,986.58
2018-06-02T00:10:27.201Z,986.61
2018-06-02T00:11:27.141Z,986.63
2018-06-02T00:12:27.162Z,986.63
2018-06-02T00:13:27.247Z,986.63
2018-06-02T00:14:27.112Z,986.64
2018-06-02T00:15:27.003Z,986.62
2018-06-02T00:16:27.014Z,986.64
2018-06-02T00:17:27.075Z,986.66
2018-06-02T00:18:26.960Z,986.61
2018-06-02T00:19:26.937Z,986.65
2018-06-02T00:20:26.962Z,986.61
2018-06-02T00:21:26.962Z,986.59
2018-06-02T00:22:26.901Z,986.55
2018-06-02T00:23:26.767Z,986.51
2018-06-02T00:24:26.765Z,986.50
2018-06-02T00:25:26.856Z,986.48
2018-06-02T00:26:26.836Z,986.48
2018-06-02T00:27:26.815Z,986.45
2018-06-02T00:28:26.748Z,986.42
2018-06-02T00:29:26.598Z,986.43
2018-06-02T00:30:26.734Z,986.42
2018-06-02T00:31:26.702Z,986.41
2018-06-02T00:32:26.795Z,986.38
2018-06-02T00:33:26.679Z,986.42
2018-06-02T00:34:26.619Z,986.41
2018-06-02T00:35:26.571Z,986.44
2018-06-02T00:36:26.425Z,986.46
2018-06-02T00:37:26.475Z,986.52
2018-06-02T00:38:26.465Z,986.56
2018-06-02T00:39:26.361Z,986.53
2018-06-02T00:40:26.331Z,986.59
2018-06-02T00:41:26.315Z,986.56
2018-06-02T00:42:26.305Z,986.56
2018-06-02T00:43:26.347Z,986.58
2018-06-02T00:44:26.246Z,986.61
2018-06-02T00:45:26.230Z,986.61
2018-06-02T00:46:26.200Z,986.58
2018-06-02T00:47:26.166Z,986.60
2018-06-02T00:48:26.225Z,986.63
2018-06-02T00:49:26.113Z,986.64
2018-06-02T00:50:26.092Z,986.59
2018-06-02T00:51:26.090Z,986.58
2018-06-02T00:52:26.043Z,986.59
2018-06-02T00:53:26.046Z,986.56
2018-06-02T00:54:26.000Z,986.58
2018-06-02T00:55:25.980Z,986.60
2018-06-02T00:56:25.987Z,986.60
2018-06-02T00:57:25.971Z,986.64
2018-06-02T00:58:25.994Z,986.66
2018-06-02T00:59:25.921Z,986.70
2018-06-02T01:00:25.857Z,986.70
2018-06-02T01:01:25.849Z,986.75
2018-06-02T01:02:25.842Z,986.73
2018-06-02T01:03:25.908Z,986.75
2018-06-02T01:04:25.789Z,986.78
2018-06-02T01:05:25.761Z,986.85
2018-06-02T01:06:25.707Z,986.85
2018-06-02T01:07:25.706Z,986.89
2018-06-02T01:08:25.822Z,986.96
2018-06-02T01:09:25.652Z,986.92
2018-06-02T01:10:25.737Z,986.93
2018-06-02T01:11:25.762Z,986.92
2018-06-02T01:12:25.730Z,986.95
2018-06-02T01:13:25.577Z,986.94
2018-06-02T01:14:25.690Z,986.92
2018-06-02T01:15:25.505Z,986.89
2018-06-02T01:16:25.474Z,986.91
2018-06-02T01:17:25.730Z,986.93
2018-06-02T01:18:25.441Z,986.96
2018-06-02T01:19:25.432Z,986.97
2018-06-02T01:20:25.442Z,987.00
2018-06-02T01:21:25.365Z,986.99
2018-06-02T01:22:25.316Z,987.04
2018-06-02T01:23:25.283Z,987.07
2018-06-02T01:24:25.286Z,987.04
2018-06-02T01:25:25.308Z,987.12
2018-06-02T01:26:25.738Z,987.10
2018-06-02T01:27:25.199Z,987.10
2018-06-02T01:28:25.707Z,987.15
2018-06-02T01:29:25.152Z,987.14
2018-06-02T01:30:25.201Z,987.15
2018-06-02T01:31:25.151Z,987.13
2018-06-02T01:32:25.115Z,987.13
2018-06-02T01:33:25.640Z,987.14
2018-06-02T01:34:24.993Z,987.15
2018-06-02T01:35:25.099Z,987.16
2018-06-02T01:36:25.564Z,987.15
2018-06-02T01:37:25.586Z,987.15
2018-06-02T01:38:25.885Z,987.21
2018-06-02T01:39:24.916Z,987.23
2018-06-02T01:40:25.024Z,987.26
2018-06-02T01:41:24.843Z,987.24
2018-06-02T01:42:24.821Z,987.33
2018-06-02T01:43:24.865Z,987.31
2018-06-02T01:44:24.775Z,987.38
2018-06-02T01:45:24.920Z,987.36
2018-06-02T01:46:24.737Z,987.37
2018-06-02T01:47:24.718Z,987.38
2018-06-02T01:48:24.666Z,987.35
2018-06-02T01:49:25.193Z,987.37
2018-06-02T01:50:24.678Z,987.34
2018-06-02T01:51:24.697Z,987.39
2018-06-02T01:52:24.762Z,987.39
2018-06-02T01:53:24.561Z,987.36
2018-06-02T01:54:24.575Z,987.37
2018-06-02T01:55:24.517Z,987.39
2018-06-02T01:56:24.647Z,987.43
2018-06-02T01:57:24.473Z,987.47
2018-06-02T01:58:24.443Z,987.47
2018-06-02T01:59:24.442Z,987.49
2018-06-02T02:00:24.407Z,987.52
2018-06-02T02:01:24.354Z,987.52
2018-06-02T02:02:24.425Z,987.53
2018-06-02T02:03:24.321Z,987.59
2018-06-02T02:04:24.262Z,987.60
2018-06-02T02:05:24.797Z,987.62
2018-06-02T02:06:24.285Z,987.64
2018-06-02T02:07:24.263Z,987.65
2018-06-02T02:08:24.186Z,987.69
2018-06-02T02:09:24.408Z,987.67
2018-06-02T02:10:24.228Z,987.70
2018-06-02T02:11:24.155Z,987.73
2018-06-02T02:12:24.182Z,987.76
2018-06-02T02:13:24.062Z,987.75
2018-06-02T02:14:24.024Z,987.72
2018-06-02T02:15:24.045Z,987.75
2018-06-02T02:16:24.009Z,987.72
2018-06-02T02:17:24.104Z,987.71
2018-06-02T02:18:23.988Z,987.71
2018-06-02T02:19:23.913Z,987.70
2018-06-02T02:20:23.879Z,987.71
2018-06-02T02:21:23.851Z,987.72
2018-06-02T02:22:23.959Z,987.78
2018-06-02T02:23:23.915Z,987.81
2018-06-02T02:24:23.781Z,987.77
2018-06-02T02:25:23.761Z,987.80
2018-06-02T02:26:23.770Z,987.77
2018-06-02T02:27:23.779Z,987.74
2018-06-02T02:28:23.711Z,987.76
2018-06-02T02:29:23.681Z,987.75
2018-06-02T02:30:23.698Z,987.74
2018-06-02T02:31:24.130Z,987.77
2018-06-02T02:32:23.579Z,987.71
2018-06-02T02:33:23.867Z,987.70
2018-06-02T02:34:23.611Z,987.70
2018-06-02T02:35:23.535Z,987.72
2018-06-02T02:36:23.496Z,987.67
2018-06-02T02:37:23.469Z,987.72
2018-06-02T02:38:23.447Z,987.69
2018-06-02T02:39:23.453Z,987.69
2018-06-02T02:40:23.415Z,987.71
2018-06-02T02:41:23.340Z,987.78
2018-06-02T02:42:23.361Z,987.80
2018-06-02T02:43:23.313Z,987.79
2018-06-02T02:44:23.365Z,987.79
2018-06-02T02:45:23.245Z,987.85
2018-06-02T02:46:23.263Z,987.88
2018-06-02T02:47:23.240Z,987.87
2018-06-02T02:48:23.162Z,987.87
2018-06-02T02:49:23.316Z,987.86
2018-06-02T02:50:23.653Z,987.88
2018-06-02T02:51:23.095Z,987.88
2018-06-02T02:52:23.048Z,987.86
2018-06-02T02:53:23.032Z,987.87
2018-06-02T02:54:23.114Z,987.89
2018-06-02T02:55:23.006Z,987.92
2018-06-02T02:56:22.971Z,987.94
2018-06-02T02:57:22.931Z,987.94
2018-06-02T02:58:22.920Z,987.93
2018-06-02T02:59:23.046Z,987.94
2018-06-02T03:00:23.424Z,987.95
2018-06-02T03:01:22.823Z,987.98
2018-06-02T03:02:22.809Z,987.96
2018-06-02T03:03:22.790Z,987.94
2018-06-02T03:04:22.841Z,987.98
2018-06-02T03:05:22.799Z,987.98
2018-06-02T03:06:22.721Z,987.98
2018-06-02T03:07:22.690Z,987.98
2018-06-02T03:08:22.709Z,988.00
2018-06-02T03:09:22.676Z,988.04
2018-06-02T03:10:22.719Z,988.05
2018-06-02T03:11:22.638Z,988.08
2018-06-02T03:12:22.583Z,988.07
2018-06-02T03:13:22.551Z,988.05
2018-06-02T03:14:23.060Z,988.02
2018-06-02T03:15:22.533Z,988.05
2018-06-02T03:16:22.550Z,988.07
2018-06-02T03:17:22.468Z,988.03
2018-06-02T03:18:22.454Z,988.06
2018-06-02T03:19:22.430Z,988.06
2018-06-02T03:20:22.390Z,988.09
2018-06-02T03:21:22.411Z,988.11
2018-06-02T03:22:22.342Z,988.13
2018-06-02T03:23:22.284Z,988.14
2018-06-02T03:24:22.300Z,988.20
2018-06-02T03:25:22.274Z,988.18
2018-06-02T03:26:22.355Z,988.20
2018-06-02T03:27:22.227Z,988.20
2018-06-02T03:28:22.172Z,988.21
2018-06-02T03:29:22.164Z,988.21
2018-06-02T03:30:22.127Z,988.21
2018-06-02T03:31:22.211Z,988.26
2018-06-02T03:32:22.084Z,988.26
2018-06-02T03:33:22.063Z,988.29
2018-06-02T03:34:22.042Z,988.30
2018-06-02T03:35:21.995Z,988.31
2018-06-02T03:36:22.044Z,988.32
2018-06-02T03:37:22.074Z,988.30
2018-06-02T03:38:21.932Z,988.32
2018-06-02T03:39:22.007Z,988.36
2018-06-02T03:40:22.015Z,988.34
2018-06-02T03:41:21.938Z,988.34
2018-06-02T03:42:22.880Z,988.36
2018-06-02T03:43:21.928Z,988.34
2018-06-02T03:44:21.840Z,988.34
2018-06-02T03:45:21.820Z,988.34
2018-06-02T03:46:21.715Z,988.34
2018-06-02T03:47:21.916Z,988.35
2018-06-02T03:48:21.787Z,988.33
2018-06-02T03:49:21.692Z,988.32
2018-06-02T03:50:21.709Z,988.32
2018-06-02T03:51:21.619Z,988.31
2018-06-02T03:52:21.759Z,988.29
2018-06-02T03:53:21.649Z,988.29
2018-06-02T03:54:21.621Z,988.29
2018-06-02T03:55:21.667Z,988.26
2018-06-02T03:56:21.575Z,988.29
2018-06-02T03:57:21.627Z,988.30
2018-06-02T03:58:21.671Z,988.29
2018-06-02T03:59:21.470Z,988.26
2018-06-02T04:00:21.481Z,988.28
2018-06-02T04:01:21.409Z,988.27
2018-06-02T04:02:21.308Z,988.23
2018-06-02T04:03:21.382Z,988.27
2018-06-02T04:04:21.229Z,988.24
2018-06-02T04:05:21.238Z,988.24
2018-06-02T04:06:21.187Z,988.24
2018-06-02T04:07:21.163Z,988.22
2018-06-02T04:08:21.311Z,988.23
2018-06-02T04:09:21.108Z,988.24
2018-06-02T04:10:21.076Z,988.26
2018-06-02T04:11:21.065Z,988.27
2018-06-02T04:12:21.061Z,988.27
2018-06-02T04:13:21.090Z,988.32
2018-06-02T04:14:21.055Z,988.34
2018-06-02T04:15:21.002Z,988.34
2018-06-02T04:16:20.939Z,988.37
2018-06-02T04:17:20.990Z,988.42
2018-06-02T04:18:20.928Z,988.36
2018-06-02T04:19:20.986Z,988.39
2018-06-02T04:20:20.848Z,988.36
2018-06-02T04:21:20.854Z,988.38
2018-06-02T04:22:20.788Z,988.36
2018-06-02T04:23:20.751Z,988.35
2018-06-02T04:24:20.857Z,988.39
2018-06-02T04:25:20.707Z,988.40
2018-06-02T04:26:20.724Z,988.42
2018-06-02T04:27:20.657Z,988.43
2018-06-02T04:28:20.644Z,988.43
2018-06-02T04:29:20.698Z,988.45
2018-06-02T04:30:20.578Z,988.45
2018-06-02T04:31:20.542Z,988.43
2018-06-02T04:32:20.534Z,988.44
2018-06-02T04:33:20.611Z,988.38
2018-06-02T04:34:20.497Z,988.35
2018-06-02T04:35:20.539Z,988.30
2018-06-02T04:36:20.446Z,988.25
2018-06-02T04:37:20.393Z,988.23
2018-06-02T04:38:20.419Z,988.22
2018-06-02T04:39:20.389Z,988.19
2018-06-02T04:40:20.440Z,988.17
2018-06-02T04:41:20.325Z,988.19
2018-06-02T04:42:20.287Z,988.22
2018-06-02T04:43:20.290Z,988.17
2018-06-02T04:44:20.221Z,988.18
2018-06-02T04:45:20.314Z,988.16
2018-06-02T04:46:20.209Z,988.14
2018-06-02T04:47:20.168Z,988.15
2018-06-02T04:48:20.133Z,988.11
2018-06-02T04:49:20.103Z,988.14
2018-06-02T04:50:20.161Z,988.14
2018-06-02T04:51:20.042Z,988.16
2018-06-02T04:52:20.006Z,988.19
2018-06-02T04:53:19.978Z,988.24
2018-06-02T04:54:19.968Z,988.23
2018-06-02T04:55:19.974Z,988.26
2018-06-02T04:56:19.959Z,988.31
2018-06-02T04:57:19.969Z,988.29
2018-06-02T04:58:19.874Z,988.32
2018-06-02T04:59:19.843Z,988.28
2018-06-02T05:00:19.854Z,988.29
2018-06-02T05:01:19.879Z,988.23
2018-06-02T05:02:19.796Z,988.22
2018-06-02T05:03:19.745Z,988.21
2018-06-02T05:04:19.709Z,988.17
2018-06-02T05:05:19.687Z,988.13
2018-06-02T05:06:19.834Z,988.13
2018-06-02T05:07:19.680Z,988.12
2018-06-02T05:08:19.607Z,988.11
2018-06-02T05:09:19.615Z,988.13
2018-06-02T05:10:19.657Z,988.11
2018-06-02T05:11:19.673Z,988.08
2018-06-02T05:12:19.606Z,988.05
2018-06-02T05:13:19.714Z,988.03
2018-06-02T05:14:19.459Z,988.02
2018-06-02T05:15:19.438Z,988.01
2018-06-02T05:16:19.439Z,988.00
2018-06-02T05:17:19.492Z,988.04
2018-06-02T05:18:19.360Z,988.07
2018-06-02T05:19:19.347Z,988.07
2018-06-02T05:20:19.317Z,988.12
2018-06-02T05:21:19.301Z,988.13
2018-06-02T05:22:19.243Z,988.15
2018-06-02T05:23:19.312Z,988.16
2018-06-02T05:24:19.196Z,988.10
2018-06-02T05:25:19.184Z,988.09
2018-06-02T05:26:19.136Z,988.07
2018-06-02T05:27:19.115Z,988.03
2018-06-02T05:28:19.190Z,988.02
2018-06-02T05:29:19.089Z,987.96
2018-06-02T05:30:19.037Z,987.97
2018-06-02T05:31:19.144Z,987.91
2018-06-02T05:32:19.004Z,987.90
2018-06-02T05:33:19.018Z,987.89
2018-06-02T05:34:18.949Z,987.89
2018-06-02T05:35:18.934Z,987.86
2018-06-02T05:36:18.904Z,987.88
2018-06-02T05:37:18.912Z,987.88
2018-06-02T05:38:18.956Z,987.87
2018-06-02T05:39:18.810Z,987.87
2018-06-02T05:40:18.807Z,987.89
2018-06-02T05:41:18.774Z,987.86
2018-06-02T05:42:18.732Z,987.83
2018-06-02T05:43:18.824Z,987.85
2018-06-02T05:44:18.705Z,987.81
2018-06-02T05:45:18.703Z,987.81
2018-06-02T05:46:18.647Z,987.81
2018-06-02T05:47:18.627Z,987.81
2018-06-02T05:48:18.691Z,987.84
2018-06-02T05:49:18.570Z,987.83
2018-06-02T05:50:18.571Z,987.83
2018-06-02T05:51:18.518Z,987.85
2018-06-02T05:52:18.512Z,987.84
2018-06-02T05:53:18.465Z,987.86
2018-06-02T05:54:18.530Z,987.87
2018-06-02T05:55:18.408Z,987.88
2018-06-02T05:56:18.385Z,987.88
2018-06-02T05:57:18.447Z,987.90
2018-06-02T05:58:18.378Z,987.88
2018-06-02T05:59:18.299Z,987.87
2018-06-02T06:00:18.341Z,987.89
2018-06-02T06:01:18.313Z,987.87
2018-06-02T06:02:18.250Z,987.88
2018-06-02T06:03:18.200Z,987.89
2018-06-02T06:04:18.170Z,987.91
2018-06-02T06:05:18.227Z,987.92
2018-06-02T06:06:18.156Z,987.95
2018-06-02T06:07:18.139Z,987.94
2018-06-02T06:08:18.087Z,987.93
2018-06-02T06:09:18.055Z,987.90
2018-06-02T06:10:18.070Z,987.88
2018-06-02T06:11:18.004Z,987.88
2018-06-02T06:12:17.955Z,987.92
2018-06-02T06:13:17.944Z,987.87
2018-06-02T06:14:17.932Z,987.87
2018-06-02T06:15:18.032Z,987.85
2018-06-02T06:16:17.876Z,987.84
2018-06-02T06:17:17.846Z,987.84
2018-06-02T06:18:17.813Z,987.82
2018-06-02T06:19:17.797Z,987.81
2018-06-02T06:20:17.915Z,987.78
2018-06-02T06:21:17.762Z,987.74
2018-06-02T06:22:17.698Z,987.80
2018-06-02T06:23:17.764Z,987.76
2018-06-02T06:24:17.673Z,987.72
2018-06-02T06:25:17.756Z,987.71
2018-06-02T06:26:17.608Z,987.71
2018-06-02T06:27:17.569Z,987.68
2018-06-02T06:28:17.568Z,987.65
2018-06-02T06:29:17.526Z,987.59
2018-06-02T06:30:17.623Z,987.57
2018-06-02T06:31:17.497Z,987.57
2018-06-02T06:32:17.471Z,987.53
2018-06-02T06:33:17.422Z,987.53
2018-06-02T06:34:17.389Z,987.48
2018-06-02T06:35:17.407Z,987.49
2018-06-02T06:36:17.458Z,987.46
2018-06-02T06:37:17.321Z,987.48
2018-06-02T06:38:17.309Z,987.43
2018-06-02T06:39:17.280Z,987.46
2018-06-02T06:40:17.244Z,987.40
2018-06-02T06:41:17.287Z,987.38
2018-06-02T06:42:17.300Z,987.33
2018-06-02T06:43:17.215Z,987.31
2018-06-02T06:44:17.139Z,987.31
2018-06-02T06:45:17.158Z,987.27
2018-06-02T06:46:17.115Z,987.23
2018-06-02T06:47:17.140Z,987.23
2018-06-02T06:48:17.053Z,987.18
2018-06-02T06:49:17.009Z,987.15
2018-06-02T06:50:17.000Z,987.10
2018-06-02T06:51:16.972Z,987.09
2018-06-02T06:52:17.095Z,987.04
2018-06-02T06:53:16.914Z,987.00
2018-06-02T06:54:16.884Z,987.00
2018-06-02T06:55:16.906Z,986.99
2018-06-02T06:56:16.833Z,986.97
2018-06-02T06:57:16.913Z,986.93
2018-06-02T06:58:16.802Z,986.92
2018-06-02T06:59:16.764Z,986.90
2018-06-02T07:00:16.772Z,986.89
2018-06-02T07:01:16.704Z,986.91
2018-06-02T07:02:16.866Z,986.88
2018-06-02T07:03:16.656Z,986.91
2018-06-02T07:04:16.644Z,986.92
2018-06-02T07:05:16.605Z,986.94
2018-06-02T07:06:16.584Z,986.92
2018-06-02T07:07:16.714Z,986.94
2018-06-02T07:08:16.535Z,986.91
2018-06-02T07:09:16.501Z,986.94
2018-06-02T07:10:16.501Z,986.89
2018-06-02T07:11:16.441Z,986.88
2018-06-02T07:12:16.523Z,986.84
2018-06-02T07:13:16.491Z,986.81
2018-06-02T07:14:16.374Z,986.82
2018-06-02T07:15:16.369Z,986.81
2018-06-02T07:16:16.336Z,986.78
2018-06-02T07:17:16.307Z,986.81
2018-06-02T07:18:16.261Z,986.82
2018-06-02T07:19:16.297Z,986.82
2018-06-02T07:20:16.239Z,986.85
2018-06-02T07:21:16.192Z,986.84
2018-06-02T07:22:16.247Z,986.87
2018-06-02T07:23:16.149Z,986.83
2018-06-02T07:24:16.173Z,986.85
2018-06-02T07:25:16.095Z,986.85
2018-06-02T07:26:16.087Z,986.82
2018-06-02T07:27:16.058Z,986.80
2018-06-02T07:28:16.020Z,986.73
2018-06-02T07:29:16.107Z,986.71
2018-06-02T07:30:15.971Z,986.70
2018-06-02T07:31:15.937Z,986.67
2018-06-02T07:32:15.958Z,986.66
2018-06-02T07:33:15.884Z,986.68
2018-06-02T07:34:15.992Z,986.66
2018-06-02T07:35:15.848Z,986.65
2018-06-02T07:36:15.814Z,986.62
2018-06-02T07:37:15.807Z,986.59
2018-06-02T07:38:15.771Z,986.57
2018-06-02T07:39:15.854Z,986.48
2018-06-02T07:40:15.713Z,986.45
2018-06-02T07:41:15.690Z,986.40
2018-06-02T07:42:15.672Z,986.36
2018-06-02T07:43:15.642Z,986.36
2018-06-02T07:44:15.762Z,986.31
2018-06-02T07:45:15.571Z,986.31
2018-06-02T07:46:15.538Z,986.29
2018-06-02T07:47:15.557Z,986.31
2018-06-02T07:48:15.509Z,986.25
2018-06-02T07:49:15.534Z,986.23
2018-06-02T07:50:15.564Z,986.23
2018-06-02T07:51:15.435Z,986.21
2018-06-02T07:52:15.422Z,986.22
2018-06-02T07:53:15.375Z,986.20
2018-06-02T07:54:15.347Z,986.19
2018-06-02T07:55:15.320Z,986.21
2018-06-02T07:56:15.363Z,986.21
2018-06-02T07:57:15.261Z,986.18
2018-06-02T07:58:15.231Z,986.17
2018-06-02T07:59:15.234Z,986.14
2018-06-02T08:00:15.199Z,986.12
2018-06-02T08:01:15.217Z,986.11
2018-06-02T08:02:15.151Z,986.05
2018-06-02T08:03:15.101Z,986.06
2018-06-02T08:04:15.136Z,986.03
2018-06-02T08:05:15.074Z,986.05
2018-06-02T08:06:15.153Z,985.96
2018-06-02T08:07:15.028Z,985.95
2018-06-02T08:08:14.989Z,985.93
2018-06-02T08:09:14.968Z,985.95
2018-06-02T08:10:14.924Z,985.96
2018-06-02T08:11:14.995Z,985.95
2018-06-02T08:12:14.883Z,985.94
2018-06-02T08:13:14.897Z,985.94
2018-06-02T08:14:14.814Z,985.94
2018-06-02T08:15:14.796Z,985.93
2018-06-02T08:16:14.911Z,985.93
2018-06-02T08:17:14.766Z,985.92
2018-06-02T08:18:14.716Z,985.89
2018-06-02T08:19:14.775Z,985.89
2018-06-02T08:20:14.676Z,985.89
2018-06-02T08:21:14.686Z,985.86
2018-06-02T08:22:14.625Z,985.87
2018-06-02T08:23:14.605Z,985.88
2018-06-02T08:24:14.572Z,985.85
2018-06-02T08:25:14.569Z,985.85
2018-06-02T08:26:14.601Z,985.81
2018-06-02T08:27:14.602Z,985.80
2018-06-02T08:28:14.472Z,985.79
2018-06-02T08:29:14.504Z,985.77
2018-06-02T08:30:14.428Z,985.77
2018-06-02T08:31:14.403Z,985.79
2018-06-02T08:32:14.375Z,985.75
2018-06-02T08:33:14.395Z,985.75
2018-06-02T08:34:14.323Z,985.74
2018-06-02T08:35:14.334Z,985.71
2018-06-02T08:36:14.248Z,985.72
2018-06-02T08:37:14.230Z,985.70
2018-06-02T08:38:14.251Z,985.70
2018-06-02T08:39:14.179Z,985.70
2018-06-02T08:40:14.175Z,985.68
2018-06-02T08:41:14.153Z,985.64
2018-06-02T08:42:14.122Z,985.68
2018-06-02T08:43:14.173Z,985.71
2018-06-02T08:44:14.068Z,985.73
2018-06-02T08:45:14.022Z,985.74
2018-06-02T08:46:14.017Z,985.78
2018-06-02T08:47:13.981Z,985.83
2018-06-02T08:48:14.063Z,985.82
2018-06-02T08:49:13.937Z,985.87
2018-06-02T08:50:13.918Z,985.88
2018-06-02T08:51:13.872Z,985.86
2018-06-02T08:52:13.848Z,985.88
2018-06-02T08:53:13.930Z,985.86
2018-06-02T08:54:13.805Z,985.87
2018-06-02T08:55:13.764Z,985.85
2018-06-02T08:56:13.750Z,985.86
2018-06-02T08:57:13.728Z,985.85
2018-06-02T08:58:13.743Z,985.84
2018-06-02T08:59:13.723Z,985.86
2018-06-02T09:00:13.646Z,985.86
2018-06-02T09:01:13.628Z,985.88
2018-06-02T09:02:13.632Z,985.87
2018-06-02T09:03:13.581Z,985.84
2018-06-02T09:04:13.641Z,985.84
2018-06-02T09:05:13.511Z,985.82
2018-06-02T09:06:13.501Z,985.87
2018-06-02T09:07:13.455Z,985.84
2018-06-02T09:08:13.453Z,985.85
2018-06-02T09:09:13.405Z,985.83
2018-06-02T09:10:13.425Z,985.87
2018-06-02T09:11:13.369Z,985.84
2018-06-02T09:12:13.325Z,985.82
2018-06-02T09:13:13.303Z,985.80
2018-06-02T09:14:13.289Z,985.79
2018-06-02T09:15:13.248Z,985.80
2018-06-02T09:16:13.261Z,985.80
2018-06-02T09:17:13.223Z,985.77
2018-06-02T09:18:13.184Z,985.77
2018-06-02T09:19:13.149Z,985.79
2018-06-02T09:20:13.160Z,985.76
2018-06-02T09:21:13.108Z,985.75
2018-06-02T09:22:13.078Z,985.75
2018-06-02T09:23:13.049Z,985.79
2018-06-02T09:24:13.025Z,985.80
2018-06-02T09:25:13.096Z,985.82
2018-06-02T09:26:12.961Z,985.85
2018-06-02T09:27:12.947Z,985.89
2018-06-02T09:28:12.915Z,985.90
2018-06-02T09:29:12.891Z,985.91
2018-06-02T09:30:12.960Z,985.92
2018-06-02T09:31:12.834Z,985.92
2018-06-02T09:32:12.813Z,985.96
2018-06-02T09:33:12.771Z,985.92
2018-06-02T09:34:12.751Z,985.97
2018-06-02T09:35:12.946Z,985.98
2018-06-02T09:36:12.728Z,985.98
2018-06-02T09:37:12.671Z,985.97
2018-06-02T09:38:12.652Z,985.97
2018-06-02T09:39:12.673Z,985.96
2018-06-02T09:40:12.616Z,985.96
2018-06-02T09:41:12.620Z,985.94
2018-06-02T09:42:12.565Z,985.93
2018-06-02T09:43:12.540Z,985.93
2018-06-02T09:44:12.501Z,985.91
2018-06-02T09:45:12.531Z,985.91
2018-06-02T09:46:12.561Z,985.94
2018-06-02T09:47:12.431Z,985.94
2018-06-02T09:48:12.385Z,985.95
2018-06-02T09:49:12.380Z,985.95
2018-06-02T09:50:12.342Z,985.95
2018-06-02T09:51:12.332Z,985.96
2018-06-02T09:52:12.413Z,985.95
2018-06-02T09:53:12.283Z,985.96
2018-06-02T09:54:12.227Z,985.99
2018-06-02T09:55:12.216Z,986.01
2018-06-02T09:56:12.212Z,986.03
2018-06-02T09:57:12.147Z,986.07
2018-06-02T09:58:12.144Z,986.06
2018-06-02T09:59:12.124Z,986.11
2018-06-02T10:00:12.054Z,986.09
2018-06-02T10:01:12.048Z,986.12
2018-06-02T10:02:12.123Z,986.11
2018-06-02T10:03:12.042Z,986.12
2018-06-02T10:04:12.015Z,986.12
2018-06-02T10:05:11.960Z,986.11
2018-06-02T10:06:11.956Z,986.18
2018-06-02T10:07:12.019Z,986.17
2018-06-02T10:08:11.870Z,986.16
2018-06-02T10:09:11.878Z,986.20
2018-06-02T10:10:11.820Z,986.20
2018-06-02T10:11:11.795Z,986.24
2018-06-02T10:12:11.789Z,986.22
2018-06-02T10:13:11.829Z,986.25
2018-06-02T10:14:11.744Z,986.27
2018-06-02T10:15:11.690Z,986.22
2018-06-02T10:16:11.669Z,986.26
2018-06-02T10:17:11.659Z,986.28
2018-06-02T10:18:11.727Z,986.27
2018-06-02T10:19:11.624Z,986.27
2018-06-02T10:20:11.607Z,986.26
2018-06-02T10:21:11.540Z,986.28
2018-06-02T10:22:11.567Z,986.31
2018-06-02T10:23:11.581Z,986.27
2018-06-02T10:24:11.500Z,986.29
2018-06-02T10:25:11.440Z,986.33
2018-06-02T10:26:11.427Z,986.35
2018-06-02T10:27:11.401Z,986.36
2018-06-02T10:28:11.368Z,986.40
2018-06-02T10:29:11.384Z,986.39
2018-06-02T10:30:11.325Z,986.41
2018-06-02T10:31:11.287Z,986.43
2018-06-02T10:32:11.246Z,986.43
2018-06-02T10:33:11.238Z,986.42
2018-06-02T10:34:11.285Z,986.40
2018-06-02T10:35:11.166Z,986.41
2018-06-02T10:36:11.243Z,986.39
2018-06-02T10:37:11.139Z,986.36
2018-06-02T10:38:11.110Z,986.36
2018-06-02T10:39:11.181Z,986.38
2018-06-02T10:40:11.036Z,986.35
2018-06-02T10:41:11.024Z,986.34
2018-06-02T10:42:10.989Z,986.33
2018-06-02T10:43:10.985Z,986.33
2018-06-02T10:44:11.005Z,986.33
2018-06-02T10:45:10.959Z,986.35
2018-06-02T10:46:10.904Z,986.29
2018-06-02T10:47:10.875Z,986.28
2018-06-02T10:48:10.836Z,986.26
2018-06-02T10:49:10.813Z,986.25
2018-06-02T10:50:10.848Z,986.25
2018-06-02T10:51:10.831Z,986.23
2018-06-02T10:52:10.813Z,986.23
2018-06-02T10:53:10.723Z,986.22
2018-06-02T10:54:10.681Z,986.24
2018-06-02T10:55:10.777Z,986.26
2018-06-02T10:56:10.637Z,986.29
2018-06-02T10:57:10.628Z,986.29
2018-06-02T10:58:10.592Z,986.31
2018-06-02T10:59:10.542Z,986.30
2018-06-02T11:00:10.631Z,986.32
2018-06-02T11:01:10.504Z,986.36
2018-06-02T11:02:10.476Z,986.34
2018-06-02T11:03:10.460Z,986.35
2018-06-02T11:04:10.458Z,986.36
2018-06-02T11:05:10.382Z,986.34
2018-06-02T11:06:10.422Z,986.38
2018-06-02T11:07:10.351Z,986.36
2018-06-02T11:08:10.326Z,986.35
2018-06-02T11:09:10.280Z,986.35
2018-06-02T11:10:10.471Z,986.36
2018-06-02T11:11:10.578Z,986.34
2018-06-02T11:12:10.205Z,986.35
2018-06-02T11:13:10.203Z,986.31
2018-06-02T11:14:10.151Z,986.30
2018-06-02T11:15:10.134Z,986.29
2018-06-02T11:16:10.101Z,986.31
2018-06-02T11:17:10.173Z,986.30
2018-06-02T11:18:10.071Z,986.32
2018-06-02T11:19:10.033Z,986.36
2018-06-02T11:20:10.134Z,986.28
2018-06-02T11:21:09.989Z,986.30
2018-06-02T11:22:10.057Z,986.28
2018-06-02T11:23:10.166Z,986.30
2018-06-02T11:24:09.929Z,986.28
2018-06-02T11:25:09.885Z,986.32
2018-06-02T11:26:09.929Z,986.34
2018-06-02T11:27:09.886Z,986.36
2018-06-02T11:28:09.858Z,986.33
2018-06-02T11:29:09.759Z,986.42
2018-06-02T11:30:09.771Z,986.42
2018-06-02T11:31:09.747Z,986.46
2018-06-02T11:32:09.786Z,986.49
2018-06-02T11:33:09.700Z,986.53
2018-06-02T11:34:09.643Z,986.58
2018-06-02T11:35:09.627Z,986.61
2018-06-02T11:36:09.580Z,986.62
2018-06-02T11:37:09.747Z,986.65
2018-06-02T11:38:09.572Z,986.64
2018-06-02T11:39:09.937Z,986.65
2018-06-02T11:40:09.722Z,986.65
2018-06-02T11:41:09.505Z,986.64
2018-06-02T11:42:09.441Z,986.60
2018-06-02T11:43:09.469Z,986.62
2018-06-02T11:44:09.504Z,986.61
2018-06-02T11:45:09.589Z,986.58
2018-06-02T11:46:09.763Z,986.56
2018-06-02T11:47:09.349Z,986.53
2018-06-02T11:48:09.329Z,986.54
2018-06-02T11:49:09.414Z,986.54
2018-06-02T11:50:09.553Z,986.58
2018-06-02T11:51:09.210Z,986.57
2018-06-02T11:52:11.274Z,986.62
2018-06-02T11:53:11.785Z,986.62
2018-06-02T11:54:10.018Z,986.62
2018-06-02T11:55:09.073Z,986.64
2018-06-02T11:56:09.074Z,986.64
2018-06-02T11:57:09.041Z,986.68
2018-06-02T11:58:09.049Z,986.71
2018-06-02T11:59:09.069Z,986.73
2018-06-02T12:00:08.961Z,986.70
2018-06-02T12:01:08.954Z,986.75
2018-06-02T12:02:08.921Z,986.79
2018-06-02T12:03:08.915Z,986.78
2018-06-02T12:04:09.019Z,986.79
2018-06-02T12:05:08.833Z,986.80
2018-06-02T12:06:08.807Z,986.80
2018-06-02T12:07:08.784Z,986.82
2018-06-02T12:08:08.759Z,986.82
2018-06-02T12:09:08.825Z,986.84
2018-06-02T12:10:08.721Z,986.86
2018-06-02T12:11:08.678Z,986.89
2018-06-02T12:12:08.664Z,986.93
2018-06-02T12:13:08.829Z,986.96
2018-06-02T12:14:08.739Z,986.96
2018-06-02T12:15:08.577Z,986.95
2018-06-02T12:16:08.586Z,986.97
2018-06-02T12:17:08.645Z,986.98
2018-06-02T12:18:08.575Z,986.97
2018-06-02T12:19:08.486Z,987.05
2018-06-02T12:20:08.509Z,987.03
2018-06-02T12:21:08.408Z,987.05
2018-06-02T12:22:08.421Z,987.03
2018-06-02T12:23:08.375Z,987.05
2018-06-02T12:24:08.693Z,987.03
2018-06-02T12:25:08.364Z,987.06
2018-06-02T12:26:08.363Z,987.06
2018-06-02T12:27:08.270Z,987.06
2018-06-02T12:28:08.268Z,987.10